sensor_id;sensor_type;location;lat;lon;timestamp;P1;durP1;ratioP1;P2;durP2;ratioP2
37049;SDS011;22958;51.232;6.826;2023-06-22T00:01:57;8.63;;;4.38;;
37049;SDS011;22958;51.232;6.826;2023-06-22T00:04:23;6.75;;;3.45;;
37049;SDS011;22958;51.232;6.826;2023-06-22T00:06:49;8.47;;;3.33;;
37049;SDS011;22958;51.232;6.826;2023-06-22T00:09:14;8.63;;;3.30;;
37049;SDS011;22958;51.232;6.826;2023-06-22T00:11:40;6.30;;;3.13;;
37049;SDS011;22958;51.232;6.826;2023-06-22T00:14:05;5.07;;;3.53;;
37049;SDS011;22958;51.232;6.826;2023-06-22T00:16:32;10.50;;;3.83;;
37049;SDS011;22958;51.232;6.826;2023-06-22T00:18:57;5.80;;;3.50;;
37049;SDS011;22958;51.232;6.826;2023-06-22T00:21:25;10.30;;;4.13;;
37049;SDS011;22958;51.232;6.826;2023-06-22T00:23:51;8.55;;;3.60;;
37049;SDS011;22958;51.232;6.826;2023-06-22T00:26:17;6.77;;;3.70;;
37049;SDS011;22958;51.232;6.826;2023-06-22T00:28:42;6.90;;;3.67;;
37049;SDS011;22958;51.232;6.826;2023-06-22T00:31:08;6.60;;;3.30;;
37049;SDS011;22958;51.232;6.826;2023-06-22T00:33:33;7.33;;;3.70;;
37049;SDS011;22958;51.232;6.826;2023-06-22T00:35:59;8.27;;;3.60;;
37049;SDS011;22958;51.232;6.826;2023-06-22T00:38:24;6.07;;;3.87;;
37049;SDS011;22958;51.232;6.826;2023-06-22T00:40:50;6.83;;;3.60;;
37049;SDS011;22958;51.232;6.826;2023-06-22T00:43:15;7.13;;;3.67;;
37049;SDS011;22958;51.232;6.826;2023-06-22T00:45:41;11.10;;;3.50;;
37049;SDS011;22958;51.232;6.826;2023-06-22T00:48:06;7.03;;;4.30;;
37049;SDS011;22958;51.232;6.826;2023-06-22T00:53:01;6.00;;;3.53;;
37049;SDS011;22958;51.232;6.826;2023-06-22T00:55:33;4.88;;;3.40;;
37049;SDS011;22958;51.232;6.826;2023-06-22T00:58:02;9.13;;;4.07;;
37049;SDS011;22958;51.232;6.826;2023-06-22T01:00:30;7.97;;;4.25;;
37049;SDS011;22958;51.232;6.826;2023-06-22T01:02:57;10.40;;;4.35;;
37049;SDS011;22958;51.232;6.826;2023-06-22T01:05:23;9.15;;;4.03;;
37049;SDS011;22958;51.232;6.826;2023-06-22T01:15:52;9.80;;;5.28;;
37049;SDS011;22958;51.232;6.826;2023-06-22T01:18:21;9.68;;;5.53;;
37049;SDS011;22958;51.232;6.826;2023-06-22T01:20:54;8.95;;;5.25;;
37049;SDS011;22958;51.232;6.826;2023-06-22T01:26:19;10.43;;;6.00;;
37049;SDS011;22958;51.232;6.826;2023-06-22T01:28:53;9.93;;;5.88;;
37049;SDS011;22958;51.232;6.826;2023-06-22T01:31:20;13.07;;;5.10;;
37049;SDS011;22958;51.232;6.826;2023-06-22T01:33:59;12.32;;;6.18;;
37049;SDS011;22958;51.232;6.826;2023-06-22T01:36:27;11.95;;;5.53;;
37049;SDS011;22958;51.232;6.826;2023-06-22T01:38:54;11.60;;;6.15;;
37049;SDS011;22958;51.232;6.826;2023-06-22T01:41:24;18.95;;;6.55;;
37049;SDS011;22958;51.232;6.826;2023-06-22T01:43:50;7.45;;;5.63;;
37049;SDS011;22958;51.232;6.826;2023-06-22T01:48:44;20.53;;;7.30;;
37049;SDS011;22958;51.232;6.826;2023-06-22T01:51:11;11.63;;;6.50;;
37049;SDS011;22958;51.232;6.826;2023-06-22T01:53:37;10.85;;;6.35;;
37049;SDS011;22958;51.232;6.826;2023-06-22T01:56:02;11.97;;;6.30;;
37049;SDS011;22958;51.232;6.826;2023-06-22T01:58:29;16.85;;;6.47;;
37049;SDS011;22958;51.232;6.826;2023-06-22T02:01:00;14.23;;;6.80;;
37049;SDS011;22958;51.232;6.826;2023-06-22T02:03:44;13.98;;;6.72;;
37049;SDS011;22958;51.232;6.826;2023-06-22T02:06:27;10.10;;;6.72;;
37049;SDS011;22958;51.232;6.826;2023-06-22T02:09:01;11.55;;;7.10;;
37049;SDS011;22958;51.232;6.826;2023-06-22T02:11:31;14.45;;;7.10;;
37049;SDS011;22958;51.232;6.826;2023-06-22T02:13:58;14.20;;;6.80;;
37049;SDS011;22958;51.232;6.826;2023-06-22T02:16:24;14.02;;;7.35;;
37049;SDS011;22958;51.232;6.826;2023-06-22T02:18:54;12.52;;;7.03;;
37049;SDS011;22958;51.232;6.826;2023-06-22T02:21:19;13.87;;;6.97;;
37049;SDS011;22958;51.232;6.826;2023-06-22T02:23:46;11.50;;;6.57;;
37049;SDS011;22958;51.232;6.826;2023-06-22T02:26:12;13.90;;;7.13;;
37049;SDS011;22958;51.232;6.826;2023-06-22T02:28:38;13.15;;;7.13;;
37049;SDS011;22958;51.232;6.826;2023-06-22T02:31:04;10.90;;;7.23;;
37049;SDS011;22958;51.232;6.826;2023-06-22T02:33:29;19.53;;;8.00;;
37049;SDS011;22958;51.232;6.826;2023-06-22T02:35:55;11.90;;;6.73;;
37049;SDS011;22958;51.232;6.826;2023-06-22T02:38:20;12.63;;;7.23;;
37049;SDS011;22958;51.232;6.826;2023-06-22T02:40:46;13.20;;;7.83;;
37049;SDS011;22958;51.232;6.826;2023-06-22T02:43:12;17.63;;;7.83;;
37049;SDS011;22958;51.232;6.826;2023-06-22T02:45:38;11.88;;;7.45;;
37049;SDS011;22958;51.232;6.826;2023-06-22T02:48:03;11.13;;;6.90;;
37049;SDS011;22958;51.232;6.826;2023-06-22T02:50:29;12.10;;;7.50;;
37049;SDS011;22958;51.232;6.826;2023-06-22T02:52:55;16.43;;;8.23;;
37049;SDS011;22958;51.232;6.826;2023-06-22T02:55:20;17.97;;;7.80;;
37049;SDS011;22958;51.232;6.826;2023-06-22T02:57:46;13.53;;;7.33;;
37049;SDS011;22958;51.232;6.826;2023-06-22T03:00:12;16.05;;;8.10;;
37049;SDS011;22958;51.232;6.826;2023-06-22T03:02:49;12.05;;;7.15;;
37049;SDS011;22958;51.232;6.826;2023-06-22T03:05:15;17.17;;;7.53;;
37049;SDS011;22958;51.232;6.826;2023-06-22T03:07:43;13.30;;;8.15;;
37049;SDS011;22958;51.232;6.826;2023-06-22T03:10:10;16.95;;;7.95;;
37049;SDS011;22958;51.232;6.826;2023-06-22T03:15:03;11.13;;;7.38;;
37049;SDS011;22958;51.232;6.826;2023-06-22T03:17:30;11.75;;;7.63;;
37049;SDS011;22958;51.232;6.826;2023-06-22T03:19:55;15.70;;;7.13;;
37049;SDS011;22958;51.232;6.826;2023-06-22T03:22:21;15.97;;;8.40;;
37049;SDS011;22958;51.232;6.826;2023-06-22T03:24:46;15.70;;;8.10;;
37049;SDS011;22958;51.232;6.826;2023-06-22T03:27:12;17.83;;;8.87;;
37049;SDS011;22958;51.232;6.826;2023-06-22T03:29:38;13.00;;;8.10;;
37049;SDS011;22958;51.232;6.826;2023-06-22T03:32:03;18.37;;;8.80;;
37049;SDS011;22958;51.232;6.826;2023-06-22T03:34:30;14.65;;;8.23;;
37049;SDS011;22958;51.232;6.826;2023-06-22T03:36:58;14.02;;;8.13;;
37049;SDS011;22958;51.232;6.826;2023-06-22T03:39:24;13.47;;;8.10;;
37049;SDS011;22958;51.232;6.826;2023-06-22T03:41:49;12.20;;;7.40;;
37049;SDS011;22958;51.232;6.826;2023-06-22T03:44:15;15.80;;;8.03;;
37049;SDS011;22958;51.232;6.826;2023-06-22T03:46:40;14.57;;;7.97;;
37049;SDS011;22958;51.232;6.826;2023-06-22T03:49:06;15.00;;;8.03;;
37049;SDS011;22958;51.232;6.826;2023-06-22T03:51:32;18.30;;;8.27;;
37049;SDS011;22958;51.232;6.826;2023-06-22T03:53:58;14.02;;;7.20;;
37049;SDS011;22958;51.232;6.826;2023-06-22T03:56:23;18.47;;;8.13;;
37049;SDS011;22958;51.232;6.826;2023-06-22T03:58:49;16.80;;;7.87;;
37049;SDS011;22958;51.232;6.826;2023-06-22T04:01:14;16.63;;;8.23;;
37049;SDS011;22958;51.232;6.826;2023-06-22T04:03:42;15.40;;;8.20;;
37049;SDS011;22958;51.232;6.826;2023-06-22T04:06:07;12.48;;;7.20;;
37049;SDS011;22958;51.232;6.826;2023-06-22T04:08:33;17.63;;;8.50;;
37049;SDS011;22958;51.232;6.826;2023-06-22T04:10:59;15.43;;;8.30;;
37049;SDS011;22958;51.232;6.826;2023-06-22T04:13:24;13.87;;;7.87;;
37049;SDS011;22958;51.232;6.826;2023-06-22T04:15:50;18.47;;;9.30;;
37049;SDS011;22958;51.232;6.826;2023-06-22T04:18:15;14.23;;;7.63;;
37049;SDS011;22958;51.232;6.826;2023-06-22T04:20:41;15.23;;;8.00;;
37049;SDS011;22958;51.232;6.826;2023-06-22T04:23:06;11.17;;;7.03;;
37049;SDS011;22958;51.232;6.826;2023-06-22T04:25:32;12.57;;;7.53;;
37049;SDS011;22958;51.232;6.826;2023-06-22T04:27:57;13.90;;;7.23;;
37049;SDS011;22958;51.232;6.826;2023-06-22T04:30:23;12.20;;;7.70;;
37049;SDS011;22958;51.232;6.826;2023-06-22T04:32:48;12.37;;;7.77;;
37049;SDS011;22958;51.232;6.826;2023-06-22T04:35:21;17.67;;;7.82;;
37049;SDS011;22958;51.232;6.826;2023-06-22T04:37:47;18.60;;;8.13;;
37049;SDS011;22958;51.232;6.826;2023-06-22T04:40:14;14.05;;;7.43;;
37049;SDS011;22958;51.232;6.826;2023-06-22T04:42:40;14.38;;;8.00;;
37049;SDS011;22958;51.232;6.826;2023-06-22T04:45:16;15.98;;;7.80;;
37049;SDS011;22958;51.232;6.826;2023-06-22T04:47:42;15.10;;;7.97;;
37049;SDS011;22958;51.232;6.826;2023-06-22T04:50:10;18.13;;;8.13;;
37049;SDS011;22958;51.232;6.826;2023-06-22T04:52:39;18.35;;;7.43;;
37049;SDS011;22958;51.232;6.826;2023-06-22T04:55:04;14.97;;;7.87;;
37049;SDS011;22958;51.232;6.826;2023-06-22T04:57:31;15.63;;;8.43;;
37049;SDS011;22958;51.232;6.826;2023-06-22T04:59:59;13.27;;;6.60;;
37049;SDS011;22958;51.232;6.826;2023-06-22T05:05:02;15.95;;;7.60;;
37049;SDS011;22958;51.232;6.826;2023-06-22T05:07:32;12.60;;;6.88;;
37049;SDS011;22958;51.232;6.826;2023-06-22T05:10:01;19.80;;;8.27;;
37049;SDS011;22958;51.232;6.826;2023-06-22T05:14:53;17.20;;;8.13;;
37049;SDS011;22958;51.232;6.826;2023-06-22T05:17:19;18.90;;;8.10;;
37049;SDS011;22958;51.232;6.826;2023-06-22T05:19:45;11.10;;;7.33;;
37049;SDS011;22958;51.232;6.826;2023-06-22T05:22:14;17.95;;;8.35;;
37049;SDS011;22958;51.232;6.826;2023-06-22T05:24:40;17.40;;;7.82;;
37049;SDS011;22958;51.232;6.826;2023-06-22T05:27:06;16.60;;;7.57;;
37049;SDS011;22958;51.232;6.826;2023-06-22T05:29:31;19.57;;;7.73;;
37049;SDS011;22958;51.232;6.826;2023-06-22T05:31:57;18.00;;;8.23;;
37049;SDS011;22958;51.232;6.826;2023-06-22T05:34:22;17.30;;;7.83;;
37049;SDS011;22958;51.232;6.826;2023-06-22T05:36:48;14.03;;;7.90;;
37049;SDS011;22958;51.232;6.826;2023-06-22T05:39:14;13.27;;;8.20;;
37049;SDS011;22958;51.232;6.826;2023-06-22T05:41:40;14.68;;;7.75;;
37049;SDS011;22958;51.232;6.826;2023-06-22T05:44:06;13.43;;;7.57;;
37049;SDS011;22958;51.232;6.826;2023-06-22T05:46:31;13.80;;;7.47;;
37049;SDS011;22958;51.232;6.826;2023-06-22T05:48:57;13.60;;;8.00;;
37049;SDS011;22958;51.232;6.826;2023-06-22T05:51:22;15.23;;;8.30;;
37049;SDS011;22958;51.232;6.826;2023-06-22T05:53:48;12.87;;;7.30;;
37049;SDS011;22958;51.232;6.826;2023-06-22T05:58:40;19.05;;;7.95;;
37049;SDS011;22958;51.232;6.826;2023-06-22T06:01:06;11.87;;;8.00;;
37049;SDS011;22958;51.232;6.826;2023-06-22T06:03:31;20.30;;;8.70;;
37049;SDS011;22958;51.232;6.826;2023-06-22T06:05:57;25.93;;;10.30;;
37049;SDS011;22958;51.232;6.826;2023-06-22T06:08:22;19.57;;;8.83;;
37049;SDS011;22958;51.232;6.826;2023-06-22T06:10:48;21.20;;;10.03;;
37049;SDS011;22958;51.232;6.826;2023-06-22T06:13:13;21.47;;;10.03;;
37049;SDS011;22958;51.232;6.826;2023-06-22T06:15:39;15.40;;;8.87;;
37049;SDS011;22958;51.232;6.826;2023-06-22T06:18:05;21.73;;;9.47;;
37049;SDS011;22958;51.232;6.826;2023-06-22T06:20:31;19.95;;;9.80;;
37049;SDS011;22958;51.232;6.826;2023-06-22T06:22:57;17.77;;;8.70;;
37049;SDS011;22958;51.232;6.826;2023-06-22T06:25:23;20.50;;;8.53;;
37049;SDS011;22958;51.232;6.826;2023-06-22T06:27:49;15.90;;;8.33;;
37049;SDS011;22958;51.232;6.826;2023-06-22T06:30:17;21.45;;;9.20;;
37049;SDS011;22958;51.232;6.826;2023-06-22T06:32:45;21.80;;;8.80;;
37049;SDS011;22958;51.232;6.826;2023-06-22T06:35:11;14.77;;;9.10;;
37049;SDS011;22958;51.232;6.826;2023-06-22T06:37:39;18.17;;;8.30;;
37049;SDS011;22958;51.232;6.826;2023-06-22T06:40:09;16.02;;;8.77;;
37049;SDS011;22958;51.232;6.826;2023-06-22T06:42:37;15.18;;;9.20;;
37049;SDS011;22958;51.232;6.826;2023-06-22T06:45:06;17.98;;;8.93;;
37049;SDS011;22958;51.232;6.826;2023-06-22T06:47:31;14.40;;;8.50;;
37049;SDS011;22958;51.232;6.826;2023-06-22T06:49:57;12.57;;;8.43;;
37049;SDS011;22958;51.232;6.826;2023-06-22T06:52:23;20.50;;;8.00;;
37049;SDS011;22958;51.232;6.826;2023-06-22T06:54:48;14.57;;;9.00;;
37049;SDS011;22958;51.232;6.826;2023-06-22T06:57:14;15.43;;;9.50;;
37049;SDS011;22958;51.232;6.826;2023-06-22T06:59:40;14.40;;;9.20;;
37049;SDS011;22958;51.232;6.826;2023-06-22T07:02:06;18.45;;;9.25;;
37049;SDS011;22958;51.232;6.826;2023-06-22T07:04:31;21.20;;;10.17;;
37049;SDS011;22958;51.232;6.826;2023-06-22T07:06:58;20.63;;;9.47;;
37049;SDS011;22958;51.232;6.826;2023-06-22T07:09:25;19.15;;;9.57;;
37049;SDS011;22958;51.232;6.826;2023-06-22T07:11:51;20.40;;;9.20;;
37049;SDS011;22958;51.232;6.826;2023-06-22T07:14:16;14.37;;;9.20;;
37049;SDS011;22958;51.232;6.826;2023-06-22T07:16:42;18.50;;;11.27;;
37049;SDS011;22958;51.232;6.826;2023-06-22T07:19:07;19.80;;;10.13;;
37049;SDS011;22958;51.232;6.826;2023-06-22T07:21:33;15.77;;;9.97;;
37049;SDS011;22958;51.232;6.826;2023-06-22T07:23:58;22.70;;;9.63;;
37049;SDS011;22958;51.232;6.826;2023-06-22T07:26:24;20.03;;;10.97;;
37049;SDS011;22958;51.232;6.826;2023-06-22T07:28:49;23.47;;;11.20;;
37049;SDS011;22958;51.232;6.826;2023-06-22T07:31:15;28.17;;;12.50;;
37049;SDS011;22958;51.232;6.826;2023-06-22T07:33:41;19.70;;;12.70;;
37049;SDS011;22958;51.232;6.826;2023-06-22T07:36:06;28.47;;;14.43;;
37049;SDS011;22958;51.232;6.826;2023-06-22T07:38:33;19.95;;;13.45;;
37049;SDS011;22958;51.232;6.826;2023-06-22T07:41:00;21.77;;;12.63;;
37049;SDS011;22958;51.232;6.826;2023-06-22T07:43:26;25.48;;;12.85;;
37049;SDS011;22958;51.232;6.826;2023-06-22T07:45:51;18.63;;;13.37;;
37049;SDS011;22958;51.232;6.826;2023-06-22T07:48:19;18.90;;;12.93;;
37049;SDS011;22958;51.232;6.826;2023-06-22T07:50:46;19.38;;;12.93;;
37049;SDS011;22958;51.232;6.826;2023-06-22T07:53:11;24.97;;;13.03;;
37049;SDS011;22958;51.232;6.826;2023-06-22T07:55:37;26.57;;;12.33;;
37049;SDS011;22958;51.232;6.826;2023-06-22T07:58:02;20.10;;;12.43;;
37049;SDS011;22958;51.232;6.826;2023-06-22T08:00:28;23.00;;;13.47;;
37049;SDS011;22958;51.232;6.826;2023-06-22T08:02:54;18.97;;;12.03;;
37049;SDS011;22958;51.232;6.826;2023-06-22T08:05:19;15.77;;;11.33;;
37049;SDS011;22958;51.232;6.826;2023-06-22T08:07:45;20.20;;;12.17;;
37049;SDS011;22958;51.232;6.826;2023-06-22T08:10:11;25.73;;;11.43;;
37049;SDS011;22958;51.232;6.826;2023-06-22T08:12:38;18.20;;;11.02;;
37049;SDS011;22958;51.232;6.826;2023-06-22T08:15:04;17.13;;;10.90;;
37049;SDS011;22958;51.232;6.826;2023-06-22T08:17:31;18.80;;;11.20;;
37049;SDS011;22958;51.232;6.826;2023-06-22T08:19:57;18.05;;;11.07;;
37049;SDS011;22958;51.232;6.826;2023-06-22T08:22:23;18.52;;;10.35;;
37049;SDS011;22958;51.232;6.826;2023-06-22T08:24:49;16.30;;;10.38;;
37049;SDS011;22958;51.232;6.826;2023-06-22T08:27:14;16.23;;;9.23;;
37049;SDS011;22958;51.232;6.826;2023-06-22T08:29:41;15.70;;;8.90;;
37049;SDS011;22958;51.232;6.826;2023-06-22T08:32:10;18.00;;;9.17;;
37049;SDS011;22958;51.232;6.826;2023-06-22T08:34:37;19.17;;;8.77;;
37049;SDS011;22958;51.232;6.826;2023-06-22T08:37:07;12.32;;;8.43;;
37049;SDS011;22958;51.232;6.826;2023-06-22T08:41:58;14.10;;;9.30;;
37049;SDS011;22958;51.232;6.826;2023-06-22T08:44:25;15.73;;;8.90;;
37049;SDS011;22958;51.232;6.826;2023-06-22T08:46:50;19.45;;;9.32;;
37049;SDS011;22958;51.232;6.826;2023-06-22T08:49:16;16.03;;;9.40;;
37049;SDS011;22958;51.232;6.826;2023-06-22T08:51:41;11.83;;;7.50;;
37049;SDS011;22958;51.232;6.826;2023-06-22T08:54:07;13.23;;;8.33;;
37049;SDS011;22958;51.232;6.826;2023-06-22T08:56:32;14.67;;;7.73;;
37049;SDS011;22958;51.232;6.826;2023-06-22T08:58:58;11.77;;;8.40;;
37049;SDS011;22958;51.232;6.826;2023-06-22T09:01:24;11.65;;;6.82;;
37049;SDS011;22958;51.232;6.826;2023-06-22T09:03:50;12.47;;;7.17;;
37049;SDS011;22958;51.232;6.826;2023-06-22T09:06:20;10.45;;;7.07;;
37049;SDS011;22958;51.232;6.826;2023-06-22T09:08:46;14.00;;;8.35;;
37049;SDS011;22958;51.232;6.826;2023-06-22T09:11:12;11.10;;;8.27;;
37049;SDS011;22958;51.232;6.826;2023-06-22T09:13:38;13.65;;;8.95;;
37049;SDS011;22958;51.232;6.826;2023-06-22T09:16:03;12.33;;;8.07;;
37049;SDS011;22958;51.232;6.826;2023-06-22T09:18:29;12.80;;;8.70;;
37049;SDS011;22958;51.232;6.826;2023-06-22T09:20:55;10.03;;;6.93;;
37049;SDS011;22958;51.232;6.826;2023-06-22T09:23:20;14.63;;;7.32;;
37049;SDS011;22958;51.232;6.826;2023-06-22T09:25:46;11.82;;;7.35;;
37049;SDS011;22958;51.232;6.826;2023-06-22T09:28:12;11.10;;;6.95;;
37049;SDS011;22958;51.232;6.826;2023-06-22T09:33:04;13.05;;;7.13;;
37049;SDS011;22958;51.232;6.826;2023-06-22T09:35:29;10.23;;;6.75;;
37049;SDS011;22958;51.232;6.826;2023-06-22T09:37:55;15.07;;;7.25;;
37049;SDS011;22958;51.232;6.826;2023-06-22T09:40:21;10.73;;;6.80;;
37049;SDS011;22958;51.232;6.826;2023-06-22T09:42:46;12.18;;;6.78;;
37049;SDS011;22958;51.232;6.826;2023-06-22T09:45:12;10.95;;;7.18;;
37049;SDS011;22958;51.232;6.826;2023-06-22T09:47:37;9.02;;;6.55;;
37049;SDS011;22958;51.232;6.826;2023-06-22T09:50:03;8.32;;;5.85;;
37049;SDS011;22958;51.232;6.826;2023-06-22T09:54:54;7.03;;;5.65;;
37049;SDS011;22958;51.232;6.826;2023-06-22T09:57:20;10.20;;;6.35;;
37049;SDS011;22958;51.232;6.826;2023-06-22T09:59:45;9.68;;;7.15;;
37049;SDS011;22958;51.232;6.826;2023-06-22T10:02:11;10.20;;;7.43;;
37049;SDS011;22958;51.232;6.826;2023-06-22T10:04:37;12.60;;;7.18;;
37049;SDS011;22958;51.232;6.826;2023-06-22T10:07:02;9.68;;;6.53;;
37049;SDS011;22958;51.232;6.826;2023-06-22T10:09:28;10.77;;;7.45;;
37049;SDS011;22958;51.232;6.826;2023-06-22T10:11:53;12.80;;;6.90;;
37049;SDS011;22958;51.232;6.826;2023-06-22T10:14:19;11.20;;;7.05;;
37049;SDS011;22958;51.232;6.826;2023-06-22T10:16:44;9.75;;;7.03;;
37049;SDS011;22958;51.232;6.826;2023-06-22T10:19:10;12.68;;;7.72;;
37049;SDS011;22958;51.232;6.826;2023-06-22T10:21:36;11.90;;;6.93;;
37049;SDS011;22958;51.232;6.826;2023-06-22T10:24:01;9.95;;;7.10;;
37049;SDS011;22958;51.232;6.826;2023-06-22T10:26:31;10.95;;;6.82;;
37049;SDS011;22958;51.232;6.826;2023-06-22T10:28:58;14.55;;;6.88;;
37049;SDS011;22958;51.232;6.826;2023-06-22T10:33:49;11.45;;;8.27;;
37049;SDS011;22958;51.232;6.826;2023-06-22T10:36:15;10.95;;;8.07;;
37049;SDS011;22958;51.232;6.826;2023-06-22T10:38:41;14.85;;;8.45;;
37049;SDS011;22958;51.232;6.826;2023-06-22T10:41:06;13.18;;;8.85;;
37049;SDS011;22958;51.232;6.826;2023-06-22T10:43:32;11.55;;;8.75;;
37049;SDS011;22958;51.232;6.826;2023-06-22T10:45:57;15.15;;;8.65;;
37049;SDS011;22958;51.232;6.826;2023-06-22T10:48:23;16.20;;;9.20;;
37049;SDS011;22958;51.232;6.826;2023-06-22T10:50:48;16.50;;;9.43;;
37049;SDS011;22958;51.232;6.826;2023-06-22T10:53:14;14.63;;;9.90;;
37049;SDS011;22958;51.232;6.826;2023-06-22T10:55:39;15.27;;;9.00;;
37049;SDS011;22958;51.232;6.826;2023-06-22T10:58:05;16.73;;;9.53;;
37049;SDS011;22958;51.232;6.826;2023-06-22T11:00:31;17.88;;;9.55;;
37049;SDS011;22958;51.232;6.826;2023-06-22T11:02:56;20.70;;;11.30;;
37049;SDS011;22958;51.232;6.826;2023-06-22T11:05:23;21.17;;;13.05;;
37049;SDS011;22958;51.232;6.826;2023-06-22T11:07:49;22.10;;;12.80;;
37049;SDS011;22958;51.232;6.826;2023-06-22T11:10:14;23.13;;;13.48;;
37049;SDS011;22958;51.232;6.826;2023-06-22T11:12:40;23.20;;;16.00;;
37049;SDS011;22958;51.232;6.826;2023-06-22T11:15:07;35.97;;;17.98;;
37049;SDS011;22958;51.232;6.826;2023-06-22T11:17:33;30.65;;;18.60;;
37049;SDS011;22958;51.232;6.826;2023-06-22T11:19:59;30.87;;;17.23;;
37049;SDS011;22958;51.232;6.826;2023-06-22T11:22:25;26.90;;;16.05;;
37049;SDS011;22958;51.232;6.826;2023-06-22T11:24:50;27.23;;;17.77;;
37049;SDS011;22958;51.232;6.826;2023-06-22T11:27:16;30.83;;;18.17;;
37049;SDS011;22958;51.232;6.826;2023-06-22T11:29:42;35.00;;;20.40;;
37049;SDS011;22958;51.232;6.826;2023-06-22T11:32:07;33.43;;;21.30;;
37049;SDS011;22958;51.232;6.826;2023-06-22T11:34:33;33.73;;;20.53;;
37049;SDS011;22958;51.232;6.826;2023-06-22T11:36:58;35.47;;;21.33;;
37049;SDS011;22958;51.232;6.826;2023-06-22T11:39:24;32.23;;;20.70;;
37049;SDS011;22958;51.232;6.826;2023-06-22T11:41:49;34.23;;;21.40;;
37049;SDS011;22958;51.232;6.826;2023-06-22T11:44:15;31.77;;;21.00;;
37049;SDS011;22958;51.232;6.826;2023-06-22T11:46:40;35.57;;;23.43;;
37049;SDS011;22958;51.232;6.826;2023-06-22T11:49:06;34.97;;;22.67;;
37049;SDS011;22958;51.232;6.826;2023-06-22T11:51:31;37.43;;;22.73;;
37049;SDS011;22958;51.232;6.826;2023-06-22T11:53:57;30.57;;;22.33;;
37049;SDS011;22958;51.232;6.826;2023-06-22T11:56:23;42.03;;;25.30;;
37049;SDS011;22958;51.232;6.826;2023-06-22T11:58:49;36.27;;;23.87;;
37049;SDS011;22958;51.232;6.826;2023-06-22T12:01:14;34.47;;;25.23;;
37049;SDS011;22958;51.232;6.826;2023-06-22T12:03:40;36.27;;;25.30;;
37049;SDS011;22958;51.232;6.826;2023-06-22T12:06:08;37.17;;;24.33;;
37049;SDS011;22958;51.232;6.826;2023-06-22T12:08:33;40.93;;;26.97;;
37049;SDS011;22958;51.232;6.826;2023-06-22T12:10:59;37.27;;;24.50;;
37049;SDS011;22958;51.232;6.826;2023-06-22T12:13:24;39.73;;;25.03;;
37049;SDS011;22958;51.232;6.826;2023-06-22T12:15:50;48.57;;;27.63;;
37049;SDS011;22958;51.232;6.826;2023-06-22T12:18:17;37.83;;;26.27;;
37049;SDS011;22958;51.232;6.826;2023-06-22T12:20:45;35.50;;;25.20;;
37049;SDS011;22958;51.232;6.826;2023-06-22T12:23:11;37.17;;;24.17;;
37049;SDS011;22958;51.232;6.826;2023-06-22T12:25:36;33.30;;;24.53;;
37049;SDS011;22958;51.232;6.826;2023-06-22T12:28:02;34.20;;;24.87;;
37049;SDS011;22958;51.232;6.826;2023-06-22T12:30:29;37.83;;;25.00;;
37049;SDS011;22958;51.232;6.826;2023-06-22T12:32:55;37.35;;;24.67;;
37049;SDS011;22958;51.232;6.826;2023-06-22T12:35:21;34.03;;;26.08;;
37049;SDS011;22958;51.232;6.826;2023-06-22T12:37:46;37.67;;;26.97;;
37049;SDS011;22958;51.232;6.826;2023-06-22T12:40:12;36.93;;;27.30;;
37049;SDS011;22958;51.232;6.826;2023-06-22T12:42:37;37.80;;;27.30;;
37049;SDS011;22958;51.232;6.826;2023-06-22T12:45:03;42.03;;;27.63;;
37049;SDS011;22958;51.232;6.826;2023-06-22T12:47:29;47.97;;;29.30;;
37049;SDS011;22958;51.232;6.826;2023-06-22T12:49:55;50.27;;;31.70;;
37049;SDS011;22958;51.232;6.826;2023-06-22T12:52:20;42.33;;;30.83;;
37049;SDS011;22958;51.232;6.826;2023-06-22T12:54:46;52.07;;;32.47;;
37049;SDS011;22958;51.232;6.826;2023-06-22T12:57:11;49.43;;;33.33;;
37049;SDS011;22958;51.232;6.826;2023-06-22T12:59:37;41.93;;;30.07;;
37049;SDS011;22958;51.232;6.826;2023-06-22T13:02:02;43.90;;;30.80;;
37049;SDS011;22958;51.232;6.826;2023-06-22T13:04:28;44.25;;;29.83;;
37049;SDS011;22958;51.232;6.826;2023-06-22T13:06:53;34.83;;;25.77;;
37049;SDS011;22958;51.232;6.826;2023-06-22T13:09:19;41.10;;;28.90;;
37049;SDS011;22958;51.232;6.826;2023-06-22T13:11:45;45.17;;;29.60;;
37049;SDS011;22958;51.232;6.826;2023-06-22T13:14:10;45.33;;;29.20;;
37049;SDS011;22958;51.232;6.826;2023-06-22T13:16:36;39.67;;;28.60;;
37049;SDS011;22958;51.232;6.826;2023-06-22T13:19:02;42.60;;;28.10;;
37049;SDS011;22958;51.232;6.826;2023-06-22T13:21:27;45.55;;;28.40;;
37049;SDS011;22958;51.232;6.826;2023-06-22T13:23:53;36.90;;;28.73;;
37049;SDS011;22958;51.232;6.826;2023-06-22T13:26:18;43.07;;;29.37;;
37049;SDS011;22958;51.232;6.826;2023-06-22T13:28:44;42.03;;;29.33;;
37049;SDS011;22958;51.232;6.826;2023-06-22T13:31:09;34.07;;;26.03;;
37049;SDS011;22958;51.232;6.826;2023-06-22T13:33:35;44.45;;;26.48;;
37049;SDS011;22958;51.232;6.826;2023-06-22T13:36:02;35.60;;;24.23;;
37049;SDS011;22958;51.232;6.826;2023-06-22T13:38:28;33.65;;;24.50;;
37049;SDS011;22958;51.232;6.826;2023-06-22T13:40:55;33.03;;;23.95;;
37049;SDS011;22958;51.232;6.826;2023-06-22T13:43:23;33.63;;;23.92;;
37049;SDS011;22958;51.232;6.826;2023-06-22T13:45:48;36.97;;;24.70;;
37049;SDS011;22958;51.232;6.826;2023-06-22T13:48:14;30.27;;;21.40;;
37049;SDS011;22958;51.232;6.826;2023-06-22T13:50:40;33.50;;;22.63;;
37049;SDS011;22958;51.232;6.826;2023-06-22T13:53:05;33.50;;;22.83;;
37049;SDS011;22958;51.232;6.826;2023-06-22T13:55:31;34.87;;;23.23;;
37049;SDS011;22958;51.232;6.826;2023-06-22T13:57:56;34.03;;;22.87;;
37049;SDS011;22958;51.232;6.826;2023-06-22T14:00:22;34.97;;;24.23;;
37049;SDS011;22958;51.232;6.826;2023-06-22T14:02:48;33.00;;;23.25;;
37049;SDS011;22958;51.232;6.826;2023-06-22T14:05:13;32.27;;;21.93;;
37049;SDS011;22958;51.232;6.826;2023-06-22T14:07:39;32.37;;;22.23;;
37049;SDS011;22958;51.232;6.826;2023-06-22T14:10:04;31.00;;;21.70;;
37049;SDS011;22958;51.232;6.826;2023-06-22T14:12:30;33.05;;;21.17;;
37049;SDS011;22958;51.232;6.826;2023-06-22T14:14:56;30.80;;;21.70;;
37049;SDS011;22958;51.232;6.826;2023-06-22T14:17:22;31.92;;;21.25;;
37049;SDS011;22958;51.232;6.826;2023-06-22T14:19:50;25.45;;;19.90;;
37049;SDS011;22958;51.232;6.826;2023-06-22T14:22:20;27.00;;;19.83;;
37049;SDS011;22958;51.232;6.826;2023-06-22T14:24:46;29.42;;;19.23;;
37049;SDS011;22958;51.232;6.826;2023-06-22T14:27:12;24.50;;;18.95;;
37049;SDS011;22958;51.232;6.826;2023-06-22T14:29:38;24.07;;;18.57;;
37049;SDS011;22958;51.232;6.826;2023-06-22T14:32:03;28.70;;;19.07;;
37049;SDS011;22958;51.232;6.826;2023-06-22T14:34:31;25.85;;;19.40;;
37049;SDS011;22958;51.232;6.826;2023-06-22T14:36:57;29.02;;;20.63;;
37049;SDS011;22958;51.232;6.826;2023-06-22T14:39:22;25.53;;;19.47;;
37049;SDS011;22958;51.232;6.826;2023-06-22T14:41:48;34.87;;;20.53;;
37049;SDS011;22958;51.232;6.826;2023-06-22T14:44:13;30.60;;;20.70;;
37049;SDS011;22958;51.232;6.826;2023-06-22T14:46:40;29.63;;;20.55;;
37049;SDS011;22958;51.232;6.826;2023-06-22T14:49:05;33.00;;;20.17;;
37049;SDS011;22958;51.232;6.826;2023-06-22T14:51:31;31.53;;;21.00;;
37049;SDS011;22958;51.232;6.826;2023-06-22T14:53:56;30.57;;;19.70;;
37049;SDS011;22958;51.232;6.826;2023-06-22T14:56:22;28.73;;;19.87;;
37049;SDS011;22958;51.232;6.826;2023-06-22T14:58:47;30.20;;;20.10;;
37049;SDS011;22958;51.232;6.826;2023-06-22T15:01:14;30.92;;;20.13;;